Strona główna
METAR-TAF:

METAR-TAF

Lotnisko :

Indianapolis, Indiana, Stany Zjednoczone

Szerokość geograficzna: 40-01-50N, Długość geograficzna: 086-15-05W, wysokość: 281 m

Aktualna obserwacja pogody

Raport powstał 33 minut temu, godzina 22:35 UTC
Cisza
Temperatura -4°C
Wilgotność 86%
Ciśnienie 1033 hPa
Widzialność: 16.1 km
Zachmurzenie całkowite na wysokości 3800 ft

METAR: KTYQ 112235Z AUTO 00000KT 10SM OVC038 M04/M06 A3051 RMK AO2 T10381062

czas: 16:08 (23:08 UTC)


TAF: brakujący

Obserwacja i prognoza pogody dla ponad 4000 lotnisk (raport METAR i TAF).

Dostępne stacje oznaczono żółtymi i czerwonymi punktami na mapie.

Najedź kursorem aby zobaczyć nazwę stacji.

Kliknij aby zobaczyć obserwacje i prognozy pogody.

Aby zmienić mapę: kliknij na zielony przycisk z czarnym krzyżykiem, aby powiększyć; na zielony przycisk z myślnikiem, aby pomniejszyć; na zielone strzałki, aby przejść do map sąsiednich.


METAR-TAF: